<?xml version="1.0" encoding="UTF-8" standalone="no" ?>
<gpx xmlns="http://www.topografix.com/GPX/1/1" xmlns:xsi="http://www.w3.org/2001/XMLSchema-instance" xsi:schemaLocation="http://www.topografix.com/GPX/1/1 http://www.topografix.com/GPX/1/1/gpx.xsd" version="1.1" creator="VisuGPX - https://www.visugpx.com">
  <metadata>
    <name>RANDO_BTT_2017</name>
    <desc><![CDATA[Randonnée du bruejouls Tassou Tour 2017]]></desc>
  </metadata>
  <trk>
    <name><![CDATA[OR-7422678--Clairvaux-d'Aveyron:RANDO_2017]]></name>
    <trkseg>
      <trkpt lat="44.41425" lon="2.42059">
        <ele>354</ele>
        <time>2017-05-16T22:32:56Z</time>
      </trkpt>
      <trkpt lat="44.41409" lon="2.42057">
        <ele>355</ele>
        <time>2017-05-16T22:34:56Z</time>
      </trkpt>
      <trkpt lat="44.41374" lon="2.42049">
        <ele>358</ele>
        <time>2017-05-16T22:36:56Z</time>
      </trkpt>
      <trkpt lat="44.41335" lon="2.42041">
        <ele>360</ele>
        <time>2017-05-16T22:38:56Z</time>
      </trkpt>
      <trkpt lat="44.41293" lon="2.42036">
        <ele>358</ele>
        <time>2017-05-16T22:40:56Z</time>
      </trkpt>
      <trkpt lat="44.41258" lon="2.4203">
        <ele>356</ele>
        <time>2017-05-16T22:42:56Z</time>
      </trkpt>
      <trkpt lat="44.41217" lon="2.42069">
        <ele>358</ele>
        <time>2017-05-16T22:44:56Z</time>
      </trkpt>
      <trkpt lat="44.41114" lon="2.42136">
        <ele>365</ele>
        <time>2017-05-16T22:46:56Z</time>
      </trkpt>
      <trkpt lat="44.41068" lon="2.42149">
        <ele>366</ele>
        <time>2017-05-16T22:48:56Z</time>
      </trkpt>
      <trkpt lat="44.41044" lon="2.42151">
        <ele>368</ele>
        <time>2017-05-16T22:50:56Z</time>
      </trkpt>
      <trkpt lat="44.40958" lon="2.42155">
        <ele>375</ele>
        <time>2017-05-16T22:52:56Z</time>
      </trkpt>
      <trkpt lat="44.40921" lon="2.42175">
        <ele>380</ele>
        <time>2017-05-16T22:54:56Z</time>
      </trkpt>
      <trkpt lat="44.40883" lon="2.42196">
        <ele>384</ele>
        <time>2017-05-16T22:56:56Z</time>
      </trkpt>
      <trkpt lat="44.40854" lon="2.42205">
        <ele>387</ele>
        <time>2017-05-16T22:58:56Z</time>
      </trkpt>
      <trkpt lat="44.40845" lon="2.42284">
        <ele>386</ele>
        <time>2017-05-16T23:00:56Z</time>
      </trkpt>
      <trkpt lat="44.40834" lon="2.4234">
        <ele>387</ele>
        <time>2017-05-16T23:02:56Z</time>
      </trkpt>
      <trkpt lat="44.40809" lon="2.42376">
        <ele>385</ele>
        <time>2017-05-16T23:04:56Z</time>
      </trkpt>
      <trkpt lat="44.40785" lon="2.42443">
        <ele>385</ele>
        <time>2017-05-16T23:06:56Z</time>
      </trkpt>
      <trkpt lat="44.40776" lon="2.4249">
        <ele>386</ele>
        <time>2017-05-16T23:08:56Z</time>
      </trkpt>
      <trkpt lat="44.40777" lon="2.42565">
        <ele>387</ele>
        <time>2017-05-16T23:10:56Z</time>
      </trkpt>
      <trkpt lat="44.40779" lon="2.42612">
        <ele>388</ele>
        <time>2017-05-16T23:12:56Z</time>
      </trkpt>
      <trkpt lat="44.4077" lon="2.42653">
        <ele>390</ele>
        <time>2017-05-16T23:14:56Z</time>
      </trkpt>
      <trkpt lat="44.40737" lon="2.42694">
        <ele>392</ele>
        <time>2017-05-16T23:16:56Z</time>
      </trkpt>
      <trkpt lat="44.40671" lon="2.427">
        <ele>391</ele>
        <time>2017-05-16T23:18:56Z</time>
      </trkpt>
      <trkpt lat="44.40641" lon="2.42709">
        <ele>393</ele>
        <time>2017-05-16T23:20:56Z</time>
      </trkpt>
      <trkpt lat="44.40604" lon="2.42728">
        <ele>397</ele>
        <time>2017-05-16T23:22:56Z</time>
      </trkpt>
      <trkpt lat="44.40555" lon="2.42722">
        <ele>399</ele>
        <time>2017-05-16T23:24:56Z</time>
      </trkpt>
      <trkpt lat="44.40524" lon="2.42754">
        <ele>403</ele>
        <time>2017-05-16T23:26:56Z</time>
      </trkpt>
      <trkpt lat="44.40478" lon="2.42784">
        <ele>407</ele>
        <time>2017-05-16T23:28:56Z</time>
      </trkpt>
      <trkpt lat="44.40419" lon="2.42831">
        <ele>413</ele>
        <time>2017-05-16T23:30:56Z</time>
      </trkpt>
      <trkpt lat="44.40385" lon="2.42848">
        <ele>415</ele>
        <time>2017-05-16T23:32:56Z</time>
      </trkpt>
      <trkpt lat="44.4036" lon="2.42825">
        <ele>411</ele>
        <time>2017-05-16T23:34:56Z</time>
      </trkpt>
      <trkpt lat="44.40342" lon="2.42797">
        <ele>407</ele>
        <time>2017-05-16T23:36:56Z</time>
      </trkpt>
      <trkpt lat="44.40331" lon="2.4275">
        <ele>400</ele>
        <time>2017-05-16T23:38:56Z</time>
      </trkpt>
      <trkpt lat="44.40304" lon="2.4272">
        <ele>394</ele>
        <time>2017-05-16T23:40:56Z</time>
      </trkpt>
      <trkpt lat="44.40278" lon="2.42715">
        <ele>391</ele>
        <time>2017-05-16T23:42:56Z</time>
      </trkpt>
      <trkpt lat="44.40253" lon="2.42741">
        <ele>392</ele>
        <time>2017-05-16T23:44:56Z</time>
      </trkpt>
      <trkpt lat="44.40207" lon="2.42775">
        <ele>393</ele>
        <time>2017-05-16T23:46:56Z</time>
      </trkpt>
      <trkpt lat="44.40155" lon="2.42818">
        <ele>397</ele>
        <time>2017-05-16T23:48:56Z</time>
      </trkpt>
      <trkpt lat="44.40112" lon="2.42764">
        <ele>385</ele>
        <time>2017-05-16T23:50:56Z</time>
      </trkpt>
      <trkpt lat="44.40037" lon="2.42786">
        <ele>381</ele>
        <time>2017-05-16T23:52:56Z</time>
      </trkpt>
      <trkpt lat="44.40098" lon="2.42688">
        <ele>370</ele>
        <time>2017-05-16T23:54:56Z</time>
      </trkpt>
      <trkpt lat="44.4007" lon="2.42608">
        <ele>364</ele>
        <time>2017-05-16T23:56:56Z</time>
      </trkpt>
      <trkpt lat="44.40075" lon="2.42555">
        <ele>365</ele>
        <time>2017-05-16T23:58:56Z</time>
      </trkpt>
      <trkpt lat="44.40053" lon="2.42495">
        <ele>368</ele>
        <time>2017-05-17T00:00:56Z</time>
      </trkpt>
      <trkpt lat="44.40017" lon="2.42445">
        <ele>371</ele>
        <time>2017-05-17T00:02:56Z</time>
      </trkpt>
      <trkpt lat="44.39968" lon="2.4247">
        <ele>372</ele>
        <time>2017-05-17T00:04:56Z</time>
      </trkpt>
      <trkpt lat="44.39891" lon="2.42516">
        <ele>375</ele>
        <time>2017-05-17T00:06:56Z</time>
      </trkpt>
      <trkpt lat="44.39804" lon="2.42576">
        <ele>379</ele>
        <time>2017-05-17T00:08:56Z</time>
      </trkpt>
      <trkpt lat="44.39786" lon="2.4264">
        <ele>377</ele>
        <time>2017-05-17T00:10:56Z</time>
      </trkpt>
      <trkpt lat="44.39795" lon="2.42705">
        <ele>372</ele>
        <time>2017-05-17T00:12:56Z</time>
      </trkpt>
      <trkpt lat="44.39796" lon="2.42807">
        <ele>374</ele>
        <time>2017-05-17T00:14:56Z</time>
      </trkpt>
      <trkpt lat="44.39658" lon="2.42891">
        <ele>380</ele>
        <time>2017-05-17T00:16:56Z</time>
      </trkpt>
      <trkpt lat="44.39676" lon="2.42954">
        <ele>389</ele>
        <time>2017-05-17T00:18:56Z</time>
      </trkpt>
      <trkpt lat="44.39691" lon="2.43038">
        <ele>396</ele>
        <time>2017-05-17T00:20:56Z</time>
      </trkpt>
      <trkpt lat="44.39758" lon="2.43198">
        <ele>401</ele>
        <time>2017-05-17T00:22:56Z</time>
      </trkpt>
      <trkpt lat="44.39808" lon="2.4327">
        <ele>412</ele>
        <time>2017-05-17T00:24:56Z</time>
      </trkpt>
      <trkpt lat="44.39732" lon="2.43483">
        <ele>418</ele>
        <time>2017-05-17T00:26:56Z</time>
      </trkpt>
      <trkpt lat="44.39642" lon="2.4355">
        <ele>429</ele>
        <time>2017-05-17T00:28:56Z</time>
      </trkpt>
      <trkpt lat="44.39686" lon="2.4358">
        <ele>428</ele>
        <time>2017-05-17T00:30:56Z</time>
      </trkpt>
      <trkpt lat="44.39664" lon="2.43634">
        <ele>436</ele>
        <time>2017-05-17T00:32:56Z</time>
      </trkpt>
      <trkpt lat="44.39622" lon="2.43717">
        <ele>453</ele>
        <time>2017-05-17T00:34:56Z</time>
      </trkpt>
      <trkpt lat="44.39772" lon="2.43644">
        <ele>450</ele>
        <time>2017-05-17T00:36:56Z</time>
      </trkpt>
      <trkpt lat="44.39893" lon="2.43657">
        <ele>460</ele>
        <time>2017-05-17T00:38:56Z</time>
      </trkpt>
      <trkpt lat="44.39958" lon="2.43732">
        <ele>477</ele>
        <time>2017-05-17T00:40:56Z</time>
      </trkpt>
      <trkpt lat="44.40032" lon="2.43713">
        <ele>486</ele>
        <time>2017-05-17T00:42:56Z</time>
      </trkpt>
      <trkpt lat="44.40043" lon="2.43638">
        <ele>485</ele>
        <time>2017-05-17T00:44:56Z</time>
      </trkpt>
      <trkpt lat="44.40032" lon="2.43542">
        <ele>480</ele>
        <time>2017-05-17T00:46:56Z</time>
      </trkpt>
      <trkpt lat="44.40059" lon="2.43417">
        <ele>489</ele>
        <time>2017-05-17T00:48:56Z</time>
      </trkpt>
      <trkpt lat="44.40095" lon="2.43616">
        <ele>508</ele>
        <time>2017-05-17T00:50:56Z</time>
      </trkpt>
      <trkpt lat="44.40097" lon="2.43735">
        <ele>511</ele>
        <time>2017-05-17T00:52:56Z</time>
      </trkpt>
      <trkpt lat="44.40066" lon="2.43812">
        <ele>515</ele>
        <time>2017-05-17T00:54:56Z</time>
      </trkpt>
      <trkpt lat="44.40031" lon="2.43915">
        <ele>531</ele>
        <time>2017-05-17T00:56:56Z</time>
      </trkpt>
      <trkpt lat="44.39972" lon="2.43916">
        <ele>526</ele>
        <time>2017-05-17T00:58:56Z</time>
      </trkpt>
      <trkpt lat="44.40099" lon="2.43943">
        <ele>555</ele>
        <time>2017-05-17T01:00:56Z</time>
      </trkpt>
      <trkpt lat="44.40144" lon="2.43903">
        <ele>560</ele>
        <time>2017-05-17T01:02:56Z</time>
      </trkpt>
      <trkpt lat="44.40172" lon="2.43942">
        <ele>572</ele>
        <time>2017-05-17T01:04:56Z</time>
      </trkpt>
      <trkpt lat="44.40241" lon="2.44065">
        <ele>581</ele>
        <time>2017-05-17T01:06:56Z</time>
      </trkpt>
      <trkpt lat="44.40245" lon="2.4411">
        <ele>583</ele>
        <time>2017-05-17T01:08:56Z</time>
      </trkpt>
      <trkpt lat="44.40258" lon="2.44155">
        <ele>583</ele>
        <time>2017-05-17T01:10:56Z</time>
      </trkpt>
      <trkpt lat="44.40255" lon="2.44185">
        <ele>584</ele>
        <time>2017-05-17T01:12:56Z</time>
      </trkpt>
      <trkpt lat="44.40244" lon="2.44269">
        <ele>585</ele>
        <time>2017-05-17T01:14:56Z</time>
      </trkpt>
      <trkpt lat="44.40239" lon="2.44335">
        <ele>585</ele>
        <time>2017-05-17T01:16:56Z</time>
      </trkpt>
      <trkpt lat="44.40232" lon="2.44379">
        <ele>585</ele>
        <time>2017-05-17T01:18:56Z</time>
      </trkpt>
      <trkpt lat="44.4023" lon="2.44414">
        <ele>585</ele>
        <time>2017-05-17T01:20:56Z</time>
      </trkpt>
      <trkpt lat="44.4023" lon="2.44462">
        <ele>582</ele>
        <time>2017-05-17T01:22:56Z</time>
      </trkpt>
      <trkpt lat="44.40249" lon="2.44489">
        <ele>582</ele>
        <time>2017-05-17T01:24:56Z</time>
      </trkpt>
      <trkpt lat="44.40253" lon="2.44493">
        <ele>581</ele>
        <time>2017-05-17T01:26:56Z</time>
      </trkpt>
      <trkpt lat="44.40291" lon="2.4436">
        <ele>582</ele>
        <time>2017-05-17T01:28:56Z</time>
      </trkpt>
      <trkpt lat="44.40291" lon="2.44319">
        <ele>583</ele>
        <time>2017-05-17T01:30:56Z</time>
      </trkpt>
      <trkpt lat="44.40281" lon="2.44292">
        <ele>583</ele>
        <time>2017-05-17T01:32:56Z</time>
      </trkpt>
      <trkpt lat="44.40296" lon="2.4427">
        <ele>582</ele>
        <time>2017-05-17T01:34:56Z</time>
      </trkpt>
      <trkpt lat="44.40319" lon="2.44269">
        <ele>581</ele>
        <time>2017-05-17T01:36:56Z</time>
      </trkpt>
      <trkpt lat="44.40346" lon="2.44275">
        <ele>578</ele>
        <time>2017-05-17T01:38:56Z</time>
      </trkpt>
      <trkpt lat="44.40379" lon="2.44301">
        <ele>573</ele>
        <time>2017-05-17T01:40:56Z</time>
      </trkpt>
      <trkpt lat="44.40376" lon="2.44329">
        <ele>573</ele>
        <time>2017-05-17T01:42:56Z</time>
      </trkpt>
      <trkpt lat="44.40409" lon="2.44335">
        <ele>568</ele>
        <time>2017-05-17T01:44:56Z</time>
      </trkpt>
      <trkpt lat="44.40434" lon="2.44352">
        <ele>563</ele>
        <time>2017-05-17T01:46:56Z</time>
      </trkpt>
      <trkpt lat="44.40471" lon="2.44395">
        <ele>558</ele>
        <time>2017-05-17T01:48:56Z</time>
      </trkpt>
      <trkpt lat="44.40515" lon="2.44413">
        <ele>556</ele>
        <time>2017-05-17T01:50:56Z</time>
      </trkpt>
      <trkpt lat="44.40555" lon="2.44419">
        <ele>557</ele>
        <time>2017-05-17T01:52:56Z</time>
      </trkpt>
      <trkpt lat="44.4059" lon="2.44387">
        <ele>549</ele>
        <time>2017-05-17T01:54:56Z</time>
      </trkpt>
      <trkpt lat="44.40633" lon="2.44376">
        <ele>551</ele>
        <time>2017-05-17T01:56:56Z</time>
      </trkpt>
      <trkpt lat="44.4069" lon="2.44361">
        <ele>552</ele>
        <time>2017-05-17T01:58:56Z</time>
      </trkpt>
      <trkpt lat="44.40734" lon="2.44361">
        <ele>554</ele>
        <time>2017-05-17T02:00:56Z</time>
      </trkpt>
      <trkpt lat="44.40757" lon="2.44361">
        <ele>554</ele>
        <time>2017-05-17T02:02:56Z</time>
      </trkpt>
      <trkpt lat="44.40793" lon="2.44385">
        <ele>558</ele>
        <time>2017-05-17T02:04:56Z</time>
      </trkpt>
      <trkpt lat="44.40846" lon="2.44423">
        <ele>565</ele>
        <time>2017-05-17T02:06:56Z</time>
      </trkpt>
      <trkpt lat="44.40888" lon="2.44432">
        <ele>566</ele>
        <time>2017-05-17T02:08:56Z</time>
      </trkpt>
      <trkpt lat="44.40926" lon="2.44421">
        <ele>564</ele>
        <time>2017-05-17T02:10:56Z</time>
      </trkpt>
      <trkpt lat="44.40967" lon="2.44419">
        <ele>561</ele>
        <time>2017-05-17T02:12:56Z</time>
      </trkpt>
      <trkpt lat="44.40993" lon="2.44443">
        <ele>563</ele>
        <time>2017-05-17T02:14:56Z</time>
      </trkpt>
      <trkpt lat="44.41027" lon="2.44485">
        <ele>569</ele>
        <time>2017-05-17T02:16:56Z</time>
      </trkpt>
      <trkpt lat="44.41052" lon="2.44507">
        <ele>572</ele>
        <time>2017-05-17T02:18:56Z</time>
      </trkpt>
      <trkpt lat="44.41136" lon="2.44462">
        <ele>561</ele>
        <time>2017-05-17T02:20:56Z</time>
      </trkpt>
      <trkpt lat="44.4116" lon="2.44466">
        <ele>563</ele>
        <time>2017-05-17T02:22:56Z</time>
      </trkpt>
      <trkpt lat="44.4119" lon="2.44477">
        <ele>568</ele>
        <time>2017-05-17T02:24:56Z</time>
      </trkpt>
      <trkpt lat="44.4122" lon="2.44494">
        <ele>574</ele>
        <time>2017-05-17T02:26:56Z</time>
      </trkpt>
      <trkpt lat="44.41249" lon="2.44501">
        <ele>577</ele>
        <time>2017-05-17T02:28:56Z</time>
      </trkpt>
      <trkpt lat="44.41271" lon="2.44475">
        <ele>571</ele>
        <time>2017-05-17T02:30:56Z</time>
      </trkpt>
      <trkpt lat="44.41318" lon="2.44436">
        <ele>569</ele>
        <time>2017-05-17T02:32:56Z</time>
      </trkpt>
      <trkpt lat="44.41372" lon="2.44415">
        <ele>567</ele>
        <time>2017-05-17T02:34:56Z</time>
      </trkpt>
      <trkpt lat="44.414" lon="2.44408">
        <ele>563</ele>
        <time>2017-05-17T02:36:56Z</time>
      </trkpt>
      <trkpt lat="44.41432" lon="2.44447">
        <ele>570</ele>
        <time>2017-05-17T02:38:56Z</time>
      </trkpt>
      <trkpt lat="44.41462" lon="2.4444">
        <ele>567</ele>
        <time>2017-05-17T02:40:56Z</time>
      </trkpt>
      <trkpt lat="44.41498" lon="2.44423">
        <ele>562</ele>
        <time>2017-05-17T02:42:56Z</time>
      </trkpt>
      <trkpt lat="44.41554" lon="2.44398">
        <ele>556</ele>
        <time>2017-05-17T02:44:56Z</time>
      </trkpt>
      <trkpt lat="44.41577" lon="2.444">
        <ele>556</ele>
        <time>2017-05-17T02:46:56Z</time>
      </trkpt>
      <trkpt lat="44.41659" lon="2.44363">
        <ele>557</ele>
        <time>2017-05-17T02:48:56Z</time>
      </trkpt>
      <trkpt lat="44.4167" lon="2.44346">
        <ele>557</ele>
        <time>2017-05-17T02:50:56Z</time>
      </trkpt>
      <trkpt lat="44.41665" lon="2.44269">
        <ele>562</ele>
        <time>2017-05-17T02:52:56Z</time>
      </trkpt>
      <trkpt lat="44.41654" lon="2.44229">
        <ele>565</ele>
        <time>2017-05-17T02:54:56Z</time>
      </trkpt>
      <trkpt lat="44.41636" lon="2.44174">
        <ele>570</ele>
        <time>2017-05-17T02:56:56Z</time>
      </trkpt>
      <trkpt lat="44.416" lon="2.4411">
        <ele>569</ele>
        <time>2017-05-17T02:58:56Z</time>
      </trkpt>
      <trkpt lat="44.41567" lon="2.44058">
        <ele>567</ele>
        <time>2017-05-17T03:00:56Z</time>
      </trkpt>
      <trkpt lat="44.41524" lon="2.44007">
        <ele>565</ele>
        <time>2017-05-17T03:02:56Z</time>
      </trkpt>
      <trkpt lat="44.41505" lon="2.43971">
        <ele>564</ele>
        <time>2017-05-17T03:04:56Z</time>
      </trkpt>
      <trkpt lat="44.41492" lon="2.43928">
        <ele>566</ele>
        <time>2017-05-17T03:06:56Z</time>
      </trkpt>
      <trkpt lat="44.41462" lon="2.4391">
        <ele>566</ele>
        <time>2017-05-17T03:08:56Z</time>
      </trkpt>
      <trkpt lat="44.41429" lon="2.43913">
        <ele>563</ele>
        <time>2017-05-17T03:10:56Z</time>
      </trkpt>
      <trkpt lat="44.41381" lon="2.43913">
        <ele>554</ele>
        <time>2017-05-17T03:12:56Z</time>
      </trkpt>
      <trkpt lat="44.41341" lon="2.43883">
        <ele>552</ele>
        <time>2017-05-17T03:14:56Z</time>
      </trkpt>
      <trkpt lat="44.41314" lon="2.43846">
        <ele>554</ele>
        <time>2017-05-17T03:16:56Z</time>
      </trkpt>
      <trkpt lat="44.41305" lon="2.43816">
        <ele>558</ele>
        <time>2017-05-17T03:18:56Z</time>
      </trkpt>
      <trkpt lat="44.41278" lon="2.43795">
        <ele>552</ele>
        <time>2017-05-17T03:20:56Z</time>
      </trkpt>
      <trkpt lat="44.41268" lon="2.43737">
        <ele>552</ele>
        <time>2017-05-17T03:22:56Z</time>
      </trkpt>
      <trkpt lat="44.41278" lon="2.43694">
        <ele>550</ele>
        <time>2017-05-17T03:24:56Z</time>
      </trkpt>
      <trkpt lat="44.41331" lon="2.43651">
        <ele>561</ele>
        <time>2017-05-17T03:26:56Z</time>
      </trkpt>
      <trkpt lat="44.4137" lon="2.4364">
        <ele>564</ele>
        <time>2017-05-17T03:28:56Z</time>
      </trkpt>
      <trkpt lat="44.41403" lon="2.43634">
        <ele>567</ele>
        <time>2017-05-17T03:30:56Z</time>
      </trkpt>
      <trkpt lat="44.41472" lon="2.43638">
        <ele>570</ele>
        <time>2017-05-17T03:32:56Z</time>
      </trkpt>
      <trkpt lat="44.41534" lon="2.43651">
        <ele>570</ele>
        <time>2017-05-17T03:34:56Z</time>
      </trkpt>
      <trkpt lat="44.41577" lon="2.43653">
        <ele>568</ele>
        <time>2017-05-17T03:36:56Z</time>
      </trkpt>
      <trkpt lat="44.4162" lon="2.43679">
        <ele>569</ele>
        <time>2017-05-17T03:38:56Z</time>
      </trkpt>
      <trkpt lat="44.41665" lon="2.43711">
        <ele>570</ele>
        <time>2017-05-17T03:40:56Z</time>
      </trkpt>
      <trkpt lat="44.4172" lon="2.43696">
        <ele>566</ele>
        <time>2017-05-17T03:42:56Z</time>
      </trkpt>
      <trkpt lat="44.41764" lon="2.43679">
        <ele>565</ele>
        <time>2017-05-17T03:44:56Z</time>
      </trkpt>
      <trkpt lat="44.41729" lon="2.43664">
        <ele>559</ele>
        <time>2017-05-17T03:46:56Z</time>
      </trkpt>
      <trkpt lat="44.41691" lon="2.43642">
        <ele>552</ele>
        <time>2017-05-17T03:48:56Z</time>
      </trkpt>
      <trkpt lat="44.41642" lon="2.43614">
        <ele>545</ele>
        <time>2017-05-17T03:50:56Z</time>
      </trkpt>
      <trkpt lat="44.41614" lon="2.43574">
        <ele>534</ele>
        <time>2017-05-17T03:52:56Z</time>
      </trkpt>
      <trkpt lat="44.41587" lon="2.43537">
        <ele>522</ele>
        <time>2017-05-17T03:54:56Z</time>
      </trkpt>
      <trkpt lat="44.41545" lon="2.43505">
        <ele>513</ele>
        <time>2017-05-17T03:56:56Z</time>
      </trkpt>
      <trkpt lat="44.41439" lon="2.43387">
        <ele>485</ele>
        <time>2017-05-17T03:58:56Z</time>
      </trkpt>
      <trkpt lat="44.4138" lon="2.43383">
        <ele>480</ele>
        <time>2017-05-17T04:00:56Z</time>
      </trkpt>
      <trkpt lat="44.41374" lon="2.433">
        <ele>463</ele>
        <time>2017-05-17T04:02:56Z</time>
      </trkpt>
      <trkpt lat="44.41347" lon="2.43279">
        <ele>457</ele>
        <time>2017-05-17T04:04:56Z</time>
      </trkpt>
      <trkpt lat="44.4132" lon="2.4323">
        <ele>446</ele>
        <time>2017-05-17T04:06:56Z</time>
      </trkpt>
      <trkpt lat="44.41291" lon="2.4318">
        <ele>437</ele>
        <time>2017-05-17T04:08:56Z</time>
      </trkpt>
      <trkpt lat="44.41279" lon="2.43165">
        <ele>434</ele>
        <time>2017-05-17T04:10:56Z</time>
      </trkpt>
      <trkpt lat="44.41252" lon="2.43147">
        <ele>428</ele>
        <time>2017-05-17T04:12:56Z</time>
      </trkpt>
      <trkpt lat="44.41233" lon="2.43144">
        <ele>423</ele>
        <time>2017-05-17T04:14:56Z</time>
      </trkpt>
      <trkpt lat="44.41205" lon="2.43172">
        <ele>419</ele>
        <time>2017-05-17T04:16:56Z</time>
      </trkpt>
      <trkpt lat="44.41214" lon="2.43211">
        <ele>424</ele>
        <time>2017-05-17T04:18:56Z</time>
      </trkpt>
      <trkpt lat="44.4121" lon="2.4325">
        <ele>426</ele>
        <time>2017-05-17T04:20:56Z</time>
      </trkpt>
      <trkpt lat="44.41185" lon="2.43275">
        <ele>426</ele>
        <time>2017-05-17T04:22:56Z</time>
      </trkpt>
      <trkpt lat="44.41153" lon="2.43286">
        <ele>424</ele>
        <time>2017-05-17T04:24:56Z</time>
      </trkpt>
      <trkpt lat="44.41105" lon="2.43292">
        <ele>420</ele>
        <time>2017-05-17T04:26:56Z</time>
      </trkpt>
      <trkpt lat="44.41076" lon="2.43296">
        <ele>417</ele>
        <time>2017-05-17T04:28:56Z</time>
      </trkpt>
      <trkpt lat="44.41062" lon="2.43315">
        <ele>417</ele>
        <time>2017-05-17T04:30:56Z</time>
      </trkpt>
      <trkpt lat="44.41049" lon="2.4336">
        <ele>419</ele>
        <time>2017-05-17T04:32:56Z</time>
      </trkpt>
      <trkpt lat="44.41034" lon="2.43349">
        <ele>414</ele>
        <time>2017-05-17T04:34:56Z</time>
      </trkpt>
      <trkpt lat="44.4103" lon="2.43327">
        <ele>411</ele>
        <time>2017-05-17T04:36:56Z</time>
      </trkpt>
      <trkpt lat="44.4102" lon="2.43233">
        <ele>399</ele>
        <time>2017-05-17T04:38:56Z</time>
      </trkpt>
      <trkpt lat="44.41018" lon="2.43194">
        <ele>396</ele>
        <time>2017-05-17T04:40:56Z</time>
      </trkpt>
      <trkpt lat="44.40997" lon="2.43135">
        <ele>390</ele>
        <time>2017-05-17T04:42:56Z</time>
      </trkpt>
      <trkpt lat="44.41011" lon="2.43109">
        <ele>388</ele>
        <time>2017-05-17T04:44:56Z</time>
      </trkpt>
      <trkpt lat="44.41041" lon="2.43054">
        <ele>386</ele>
        <time>2017-05-17T04:46:56Z</time>
      </trkpt>
      <trkpt lat="44.41036" lon="2.42994">
        <ele>381</ele>
        <time>2017-05-17T04:48:56Z</time>
      </trkpt>
      <trkpt lat="44.4103" lon="2.4293">
        <ele>380</ele>
        <time>2017-05-17T04:50:56Z</time>
      </trkpt>
      <trkpt lat="44.4103" lon="2.42863">
        <ele>378</ele>
        <time>2017-05-17T04:52:56Z</time>
      </trkpt>
      <trkpt lat="44.41029" lon="2.42799">
        <ele>377</ele>
        <time>2017-05-17T04:54:56Z</time>
      </trkpt>
      <trkpt lat="44.41038" lon="2.42707">
        <ele>375</ele>
        <time>2017-05-17T04:56:56Z</time>
      </trkpt>
      <trkpt lat="44.41046" lon="2.42619">
        <ele>374</ele>
        <time>2017-05-17T04:58:56Z</time>
      </trkpt>
      <trkpt lat="44.41053" lon="2.42559">
        <ele>374</ele>
        <time>2017-05-17T05:00:56Z</time>
      </trkpt>
      <trkpt lat="44.4105" lon="2.42505">
        <ele>373</ele>
        <time>2017-05-17T05:02:56Z</time>
      </trkpt>
      <trkpt lat="44.4109" lon="2.42483">
        <ele>371</ele>
        <time>2017-05-17T05:04:56Z</time>
      </trkpt>
      <trkpt lat="44.41164" lon="2.42423">
        <ele>370</ele>
        <time>2017-05-17T05:06:56Z</time>
      </trkpt>
      <trkpt lat="44.41205" lon="2.42363">
        <ele>368</ele>
        <time>2017-05-17T05:08:56Z</time>
      </trkpt>
      <trkpt lat="44.41242" lon="2.42312">
        <ele>365</ele>
        <time>2017-05-17T05:10:56Z</time>
      </trkpt>
      <trkpt lat="44.41286" lon="2.42254">
        <ele>360</ele>
        <time>2017-05-17T05:12:56Z</time>
      </trkpt>
      <trkpt lat="44.41308" lon="2.4223">
        <ele>359</ele>
        <time>2017-05-17T05:14:56Z</time>
      </trkpt>
      <trkpt lat="44.41306" lon="2.42209">
        <ele>359</ele>
        <time>2017-05-17T05:16:56Z</time>
      </trkpt>
      <trkpt lat="44.41303" lon="2.42183">
        <ele>359</ele>
        <time>2017-05-17T05:18:56Z</time>
      </trkpt>
      <trkpt lat="44.41306" lon="2.42149">
        <ele>359</ele>
        <time>2017-05-17T05:20:56Z</time>
      </trkpt>
      <trkpt lat="44.41326" lon="2.42118">
        <ele>360</ele>
        <time>2017-05-17T05:22:56Z</time>
      </trkpt>
      <trkpt lat="44.41354" lon="2.42108">
        <ele>359</ele>
        <time>2017-05-17T05:24:56Z</time>
      </trkpt>
      <trkpt lat="44.41378" lon="2.42104">
        <ele>357</ele>
        <time>2017-05-17T05:26:56Z</time>
      </trkpt>
      <trkpt lat="44.41405" lon="2.42115">
        <ele>354</ele>
        <time>2017-05-17T05:28:56Z</time>
      </trkpt>
      <trkpt lat="44.41426" lon="2.42062">
        <ele>354</ele>
        <time>2017-05-17T05:30:56Z</time>
      </trkpt>
    </trkseg>
  </trk>
</gpx>